This is the latest recevied weather packets stored in our database for station/object EA6AMI-5. If no packets are shown the sender has not sent any weather packets the latest 10 day(s).
| Time | Temp. | Humidity | Pressure | Rain* | Wind** | Luminosity | Snow |
|---|---|---|---|---|---|---|---|
| 1777897623 | 17.78° C | 87% | 1013.6 hPa | 0 mm | - | 216 W/m² | - |
| 1777897083 | 18.33° C | 86% | 1013.5 hPa | 0 mm | - | 73 W/m² | - |
| 1777896544 | 18.33° C | 85% | 1013.7 hPa | 0 mm | - | 64 W/m² | - |
| 1777896003 | 18.33° C | 84% | 1013.5 hPa | 0 mm | - | 82 W/m² | - |
| 1777895643 | 18.33° C | 83% | 1013.6 hPa | 0 mm | - | 128 W/m² | - |
| 1777895103 | 18.33° C | 84% | 1013.7 hPa | 0 mm | - | 311 W/m² | - |
| 1777894564 | 18.89° C | 83% | 1013.7 hPa | 0 mm | - | 134 W/m² | - |
| 1777894023 | 19.44° C | 81% | 1013.5 hPa | 0 mm | - | 175 W/m² | - |
| 1777893483 | 19.44° C | 81% | 1013.6 hPa | 0 mm | - | 164 W/m² | - |
| 1777892944 | 18.89° C | 81% | 1013.6 hPa | 0 mm | - | 311 W/m² | - |
| 1777892403 | 19.44° C | 80% | 1013.6 hPa | 0 mm | - | 223 W/m² | - |
| 1777892043 | 18.89° C | 80% | 1013.8 hPa | 0 mm | - | 292 W/m² | - |
| 1777891503 | 19.44° C | 79% | 1013.6 hPa | 0 mm | - | 237 W/m² | - |
| 1777890963 | 20° C | 78% | 1013.3 hPa | 0 mm | - | 227 W/m² | - |
| 1777890423 | 19.44° C | 77% | 1013.5 hPa | 0 mm | - | 383 W/m² | - |
| 1777889883 | 19.44° C | 78% | 1013.7 hPa | 0 mm | - | 260 W/m² | - |
| 1777889344 | 19.44° C | 79% | 1013.5 hPa | 0 mm | - | 237 W/m² | - |
| 1777888803 | 20° C | 79% | 1013.7 hPa | 0 mm | - | 141 W/m² | - |
| 1777888443 | 19.44° C | 78% | 1013.6 hPa | 0 mm | - | 251 W/m² | - |
| 1777887903 | 19.44° C | 78% | 1013.7 hPa | 0 mm | - | 188 W/m² | - |
| 1777887363 | 20° C | 78% | 1013.8 hPa | 0 mm | - | 158 W/m² | - |
| 1777886823 | 19.44° C | 79% | 1013.6 hPa | 0 mm | - | 275 W/m² | - |
| 1777886283 | 18.89° C | 81% | 1013.5 hPa | 0 mm | - | 319 W/m² | - |
| 1777885743 | 18.89° C | 82% | 1013.6 hPa | 0 mm | - | 222 W/m² | - |
| 1777885203 | 18.89° C | 83% | 1013.6 hPa | 0 mm | - | 172 W/m² | - |
* Rain latest hour (hover to see other rain measurements)
** Current wind speed in m/s (hover to see current wind gust speed)